createdAt,value
2024-02-04T00:03:30.288Z,100054.56
2024-02-04T00:08:52.133Z,100064.06
2024-02-04T00:14:14.041Z,100065.94
2024-02-04T00:19:36.049Z,100072.19
2024-02-04T00:24:57.972Z,100042.06
2024-02-04T00:30:19.983Z,100017.63
2024-02-04T00:35:41.851Z,100022.94
2024-02-04T00:41:03.687Z,100030.59
2024-02-04T00:46:25.414Z,100032.09
2024-02-04T00:51:47.462Z,100044.56
2024-02-04T00:57:09.305Z,100046.28
2024-02-04T01:02:31.345Z,100045.09
2024-02-04T01:07:53.052Z,100047.59
2024-02-04T01:13:15.604Z,100055.88
2024-02-04T01:18:37.553Z,100049.97
2024-02-04T01:23:59.345Z,100059.06
2024-02-04T01:29:21.094Z,100062.63
2024-02-04T01:34:43.009Z,100056.91
2024-02-04T01:40:05.938Z,100057.69
2024-02-04T01:45:27.760Z,100054.00
2024-02-04T01:50:54.100Z,100053.28
2024-02-04T01:56:16.305Z,100026.69
2024-02-04T02:01:38.478Z,100015.50
2024-02-04T02:07:00.653Z,100019.75
2024-02-04T02:12:31.017Z,100034.09
2024-02-04T02:18:13.306Z,100019.59
2024-02-04T02:23:37.685Z,100021.28
2024-02-04T02:28:59.562Z,100028.31
2024-02-04T02:34:30.563Z,100009.41
2024-02-04T02:40:09.866Z,100018.00
2024-02-04T02:45:32.028Z,100022.97
2024-02-04T02:50:55.002Z,100022.84
2024-02-04T02:56:16.754Z,100028.97
2024-02-04T03:01:41.679Z,100017.44
2024-02-04T03:07:03.610Z,100016.28
2024-02-04T03:12:25.400Z,100026.59
2024-02-04T03:17:47.229Z,100008.38
2024-02-04T03:23:09.930Z,100010.16
2024-02-04T03:28:31.826Z,100016.34
2024-02-04T03:33:53.826Z,100011.63
2024-02-04T03:39:15.724Z,100036.75
2024-02-04T03:44:37.453Z,100029.09
2024-02-04T03:49:59.245Z,100044.25
2024-02-04T03:55:21.172Z,100038.88
2024-02-04T04:00:43.036Z,100060.38
2024-02-04T04:06:05.144Z,100052.19
2024-02-04T04:11:27.209Z,100047.69
2024-02-04T04:16:49.020Z,100044.34
2024-02-04T04:22:10.912Z,100046.97
2024-02-04T04:27:32.833Z,100057.16
2024-02-04T04:32:54.698Z,100047.88
2024-02-04T04:38:16.524Z,100059.84
2024-02-04T04:43:38.487Z,100059.88
2024-02-04T04:49:00.412Z,100074.22
2024-02-04T04:54:22.460Z,100065.75
2024-02-04T04:59:44.335Z,100065.47
2024-02-04T05:05:06.974Z,100071.94
2024-02-04T05:10:28.872Z,100072.53
2024-02-04T05:15:50.728Z,100083.41
2024-02-04T05:21:12.820Z,100083.72
2024-02-04T05:26:34.590Z,100096.22
2024-02-04T05:31:56.327Z,100082.91
2024-02-04T05:37:18.094Z,100085.56
2024-02-04T05:42:39.850Z,100105.66
2024-02-04T05:48:01.678Z,100101.22
2024-02-04T05:53:23.532Z,100091.31
2024-02-04T05:58:45.315Z,100093.31
2024-02-04T06:04:07.250Z,100080.56
2024-02-04T06:09:29.162Z,100055.81
2024-02-04T06:14:50.978Z,100064.13
2024-02-04T06:20:12.843Z,100067.63
2024-02-04T06:25:34.690Z,100066.78
2024-02-04T06:30:56.735Z,100068.41
2024-02-04T06:36:18.654Z,100062.56
2024-02-04T06:41:40.439Z,100075.91
2024-02-04T06:47:02.255Z,100078.59
2024-02-04T06:52:24.023Z,100080.94
2024-02-04T06:57:45.891Z,100085.34
2024-02-04T07:03:07.774Z,100081.19
2024-02-04T07:08:29.592Z,100094.63
2024-02-04T07:13:51.407Z,100089.47
2024-02-04T07:19:13.269Z,100100.44
2024-02-04T07:24:35.136Z,100083.63
2024-02-04T07:29:56.914Z,100086.53
2024-02-04T07:35:18.701Z,100091.53
2024-02-04T07:40:40.538Z,100095.59
2024-02-04T07:46:05.416Z,100095.84
2024-02-04T07:51:27.864Z,100099.31
2024-02-04T07:56:49.723Z,100084.88
2024-02-04T08:02:11.557Z,100092.03
2024-02-04T08:07:33.710Z,100085.22
2024-02-04T08:12:55.624Z,100101.75
2024-02-04T08:18:17.707Z,100092.94
2024-02-04T08:23:39.648Z,100102.44
2024-02-04T08:29:01.616Z,100093.94
2024-02-04T08:34:23.601Z,100081.63
2024-02-04T08:39:45.399Z,100091.31
2024-02-04T08:45:07.669Z,100079.88
2024-02-04T08:50:30.160Z,100091.09
2024-02-04T08:55:53.458Z,100090.69
2024-02-04T09:01:15.717Z,100098.16
2024-02-04T09:06:37.732Z,100108.38
2024-02-04T09:11:59.540Z,100106.69
2024-02-04T09:17:21.264Z,100095.22
2024-02-04T09:22:43.141Z,100090.41
2024-02-04T09:28:05.352Z,100101.84
2024-02-04T09:33:27.399Z,100099.88
2024-02-04T09:38:49.302Z,100103.06
2024-02-04T09:44:12.189Z,100102.22
2024-02-04T09:49:34.262Z,100088.75
2024-02-04T09:55:03.552Z,100081.09
2024-02-04T10:00:37.358Z,100087.66
2024-02-04T10:05:59.568Z,100074.47
2024-02-04T10:11:21.686Z,100061.72
2024-02-04T10:22:22.912Z,100033.47
2024-02-04T10:27:50.293Z,100030.09
2024-02-04T10:33:12.189Z,100026.00
2024-02-04T10:38:34.430Z,100014.59
2024-02-04T10:43:57.791Z,100001.69
2024-02-04T10:49:29.814Z,99994.56
2024-02-04T10:54:56.280Z,99969.06
2024-02-04T11:00:22.140Z,99956.34
2024-02-04T11:11:40.871Z,99962.75
2024-02-04T11:17:56.942Z,99970.69
2024-02-04T11:35:19.949Z,99958.06
2024-02-04T11:40:55.020Z,99965.56
2024-02-04T11:57:57.037Z,99943.44
2024-02-04T12:03:44.979Z,99941.72
2024-02-04T12:09:25.929Z,99925.41
2024-02-04T12:14:49.972Z,99904.72
2024-02-04T12:26:03.332Z,99872.88
2024-02-04T12:37:07.031Z,99862.31
2024-02-04T12:42:34.983Z,99856.97
2024-02-04T12:53:40.070Z,99846.75
2024-02-04T12:59:13.967Z,99836.69
2024-02-04T13:16:06.973Z,99821.44
2024-02-04T13:27:13.038Z,99812.31
2024-02-04T13:32:50.051Z,99807.00
2024-02-04T13:38:17.563Z,99802.94
2024-02-04T13:43:39.339Z,99802.31
2024-02-04T13:49:01.203Z,99797.38
2024-02-04T13:54:26.219Z,99791.22
2024-02-04T13:59:47.960Z,99778.72
2024-02-04T14:05:09.915Z,99771.72
2024-02-04T14:10:49.962Z,99776.06
2024-02-04T14:21:59.627Z,99770.78
2024-02-04T14:27:24.027Z,99766.50
2024-02-04T14:32:52.220Z,99752.00
2024-02-04T14:38:13.963Z,99739.47
2024-02-04T14:43:39.121Z,99725.25
2024-02-04T14:49:19.087Z,99721.84
2024-02-04T14:54:43.986Z,99701.94
2024-02-04T15:00:24.689Z,99699.25
2024-02-04T15:05:46.498Z,99696.19
2024-02-04T15:11:11.225Z,99685.66
2024-02-04T15:16:33.387Z,99692.50
2024-02-04T15:21:58.103Z,99692.47
2024-02-04T15:27:26.329Z,99682.63
2024-02-04T15:32:51.305Z,99666.91
2024-02-04T15:38:22.080Z,99667.94
2024-02-04T15:49:31.126Z,99671.06
2024-02-04T15:54:56.182Z,99672.59
2024-02-04T16:00:19.585Z,99657.09
2024-02-04T16:05:44.734Z,99657.81
2024-02-04T16:11:15.613Z,99655.34
2024-02-04T16:16:44.366Z,99667.41
2024-02-04T16:22:06.547Z,99660.03
2024-02-04T16:27:31.270Z,99653.13
2024-02-04T16:32:53.228Z,99628.84
2024-02-04T16:38:15.080Z,99640.25
2024-02-04T16:43:39.980Z,99632.38
2024-02-04T16:49:01.945Z,99589.06
2024-02-04T16:54:25.603Z,99640.19
2024-02-04T16:59:52.753Z,99628.75
2024-02-04T17:05:18.275Z,99613.81
2024-02-04T17:10:47.017Z,99613.84
2024-02-04T17:16:53.587Z,99608.00
2024-02-04T17:22:17.749Z,99594.31
2024-02-04T17:27:41.195Z,99594.72
2024-02-04T17:33:03.299Z,99583.59
2024-02-04T17:38:25.136Z,99580.00
2024-02-04T17:49:44.431Z,99586.97
2024-02-04T17:55:07.467Z,99581.09
2024-02-04T18:00:29.257Z,99582.13
2024-02-04T18:05:51.011Z,99568.38
2024-02-04T18:11:19.590Z,99562.88
2024-02-04T18:22:23.338Z,99550.16
2024-02-04T18:27:45.239Z,99555.13
2024-02-04T18:33:09.934Z,99556.97
2024-02-04T18:38:31.782Z,99544.94
2024-02-04T18:43:56.181Z,99547.81
2024-02-04T18:54:57.246Z,99537.69
2024-02-04T19:00:19.298Z,99534.41
2024-02-04T19:05:43.983Z,99539.56
2024-02-04T19:11:07.194Z,99535.41
2024-02-04T19:22:08.379Z,99527.69
2024-02-04T19:27:30.215Z,99539.03
2024-02-04T19:32:54.127Z,99517.84
2024-02-04T19:38:15.968Z,99520.22
2024-02-04T19:43:37.778Z,99531.13
2024-02-04T19:48:59.809Z,99517.91
2024-02-04T19:54:21.638Z,99525.28
2024-02-04T19:59:44.927Z,99522.72
2024-02-04T20:05:07.327Z,99528.44
2024-02-04T20:10:29.208Z,99492.75
2024-02-04T20:15:51.113Z,99508.88
2024-02-04T20:21:13.001Z,99504.38
2024-02-04T20:26:38.937Z,99510.88
2024-02-04T20:32:00.875Z,99495.63
2024-02-04T20:37:22.769Z,99513.28
2024-02-04T20:42:44.594Z,99504.16
2024-02-04T20:48:06.947Z,99501.50
2024-02-04T20:53:28.791Z,99499.97
2024-02-04T20:58:50.566Z,99505.09
2024-02-04T21:04:12.405Z,99474.97
2024-02-04T21:09:34.298Z,99470.13
2024-02-04T21:14:56.135Z,99477.53
2024-02-04T21:20:17.908Z,99471.66
2024-02-04T21:25:39.791Z,99470.97
2024-02-04T21:31:01.730Z,99447.59
2024-02-04T21:36:23.536Z,99444.06
2024-02-04T21:41:45.484Z,99432.38
2024-02-04T21:47:07.249Z,99428.03
2024-02-04T21:52:28.999Z,99433.34
2024-02-04T21:57:50.875Z,99430.03
2024-02-04T22:03:12.745Z,99414.03
2024-02-04T22:08:34.485Z,99393.69
2024-02-04T22:13:56.199Z,99419.97
2024-02-04T22:19:18.016Z,99407.53
2024-02-04T22:24:39.937Z,99389.94
2024-02-04T22:30:01.828Z,99404.66
2024-02-04T22:35:23.737Z,99410.69
2024-02-04T22:40:45.546Z,99397.88
2024-02-04T22:46:08.495Z,99394.31
2024-02-04T22:51:30.304Z,99394.84
2024-02-04T22:56:52.056Z,99386.31
2024-02-04T23:02:13.854Z,99397.47
2024-02-04T23:07:43.643Z,99405.66
2024-02-04T23:13:13.973Z,99386.84
2024-02-04T23:18:36.275Z,99390.53
2024-02-04T23:23:58.053Z,99392.56
2024-02-04T23:29:19.879Z,99372.00
2024-02-04T23:34:41.799Z,99373.00
2024-02-04T23:40:04.036Z,99369.84
2024-02-04T23:45:25.905Z,99373.94
2024-02-04T23:50:47.655Z,99366.31
2024-02-04T23:56:09.421Z,99366.94
